sensor_id;sensor_type;location;lat;lon;timestamp;P1;durP1;ratioP1;P2;durP2;ratioP2
56269;SDS011;42176;43.240;27.880;2023-05-08T00:01:58;2.78;;;1.50;;
56269;SDS011;42176;43.240;27.880;2023-05-08T00:04:23;7.95;;;2.55;;
56269;SDS011;42176;43.240;27.880;2023-05-08T00:06:49;5.45;;;3.05;;
56269;SDS011;42176;43.240;27.880;2023-05-08T00:09:15;3.50;;;2.47;;
56269;SDS011;42176;43.240;27.880;2023-05-08T00:11:41;2.85;;;2.65;;
56269;SDS011;42176;43.240;27.880;2023-05-08T00:14:06;5.80;;;2.30;;
56269;SDS011;42176;43.240;27.880;2023-05-08T00:16:33;3.85;;;2.50;;
56269;SDS011;42176;43.240;27.880;2023-05-08T00:18:59;4.63;;;2.92;;
56269;SDS011;42176;43.240;27.880;2023-05-08T00:21:24;5.28;;;2.53;;
56269;SDS011;42176;43.240;27.880;2023-05-08T00:23:50;7.55;;;2.35;;
56269;SDS011;42176;43.240;27.880;2023-05-08T00:26:15;8.25;;;3.15;;
56269;SDS011;42176;43.240;27.880;2023-05-08T00:28:41;2.38;;;2.10;;
56269;SDS011;42176;43.240;27.880;2023-05-08T00:31:06;2.35;;;1.92;;
56269;SDS011;42176;43.240;27.880;2023-05-08T00:33:32;5.45;;;2.55;;
56269;SDS011;42176;43.240;27.880;2023-05-08T00:35:58;8.18;;;2.78;;
56269;SDS011;42176;43.240;27.880;2023-05-08T00:38:31;3.72;;;2.75;;
56269;SDS011;42176;43.240;27.880;2023-05-08T00:40:57;5.55;;;3.65;;
56269;SDS011;42176;43.240;27.880;2023-05-08T00:43:24;8.13;;;2.60;;
56269;SDS011;42176;43.240;27.880;2023-05-08T00:45:52;8.98;;;2.92;;
56269;SDS011;42176;43.240;27.880;2023-05-08T00:48:19;4.15;;;3.03;;
56269;SDS011;42176;43.240;27.880;2023-05-08T00:50:46;4.50;;;2.83;;
56269;SDS011;42176;43.240;27.880;2023-05-08T00:53:12;7.13;;;3.25;;
56269;SDS011;42176;43.240;27.880;2023-05-08T00:55:38;5.32;;;3.28;;
56269;SDS011;42176;43.240;27.880;2023-05-08T00:58:04;2.97;;;2.17;;
56269;SDS011;42176;43.240;27.880;2023-05-08T01:00:31;5.55;;;2.55;;
56269;SDS011;42176;43.240;27.880;2023-05-08T01:02:57;11.48;;;2.78;;
56269;SDS011;42176;43.240;27.880;2023-05-08T01:05:25;4.32;;;2.70;;
56269;SDS011;42176;43.240;27.880;2023-05-08T01:07:51;4.85;;;2.67;;
56269;SDS011;42176;43.240;27.880;2023-05-08T01:10:17;7.57;;;2.55;;
56269;SDS011;42176;43.240;27.880;2023-05-08T01:15:10;7.93;;;3.00;;
56269;SDS011;42176;43.240;27.880;2023-05-08T01:20:33;4.28;;;2.90;;
56269;SDS011;42176;43.240;27.880;2023-05-08T01:37:56;3.17;;;2.47;;
56269;SDS011;42176;43.240;27.880;2023-05-08T01:43:30;3.17;;;2.50;;
56269;SDS011;42176;43.240;27.880;2023-05-08T01:46:04;1.90;;;1.73;;
56269;SDS011;42176;43.240;27.880;2023-05-08T01:48:38;4.45;;;2.83;;
56269;SDS011;42176;43.240;27.880;2023-05-08T01:51:21;5.60;;;2.42;;
56269;SDS011;42176;43.240;27.880;2023-05-08T01:53:57;5.22;;;2.28;;
56269;SDS011;42176;43.240;27.880;2023-05-08T01:56:28;8.90;;;2.55;;
56269;SDS011;42176;43.240;27.880;2023-05-08T01:58:55;3.95;;;2.80;;
56269;SDS011;42176;43.240;27.880;2023-05-08T02:01:23;8.07;;;3.05;;
56269;SDS011;42176;43.240;27.880;2023-05-08T02:03:50;4.63;;;2.20;;
56269;SDS011;42176;43.240;27.880;2023-05-08T02:06:21;2.63;;;2.30;;
56269;SDS011;42176;43.240;27.880;2023-05-08T02:08:49;4.93;;;2.65;;
56269;SDS011;42176;43.240;27.880;2023-05-08T02:11:16;3.22;;;2.47;;
56269;SDS011;42176;43.240;27.880;2023-05-08T02:13:43;2.35;;;2.00;;
56269;SDS011;42176;43.240;27.880;2023-05-08T02:16:11;9.25;;;2.47;;
56269;SDS011;42176;43.240;27.880;2023-05-08T02:18:39;7.53;;;2.75;;
56269;SDS011;42176;43.240;27.880;2023-05-08T02:21:10;4.70;;;1.92;;
56269;SDS011;42176;43.240;27.880;2023-05-08T02:23:38;5.22;;;1.80;;
56269;SDS011;42176;43.240;27.880;2023-05-08T02:26:07;3.80;;;2.00;;
56269;SDS011;42176;43.240;27.880;2023-05-08T02:28:34;7.07;;;1.85;;
56269;SDS011;42176;43.240;27.880;2023-05-08T02:31:00;3.85;;;2.40;;
56269;SDS011;42176;43.240;27.880;2023-05-08T02:33:27;3.50;;;1.95;;
56269;SDS011;42176;43.240;27.880;2023-05-08T02:35:54;3.58;;;2.15;;
56269;SDS011;42176;43.240;27.880;2023-05-08T02:38:21;4.40;;;2.15;;
56269;SDS011;42176;43.240;27.880;2023-05-08T02:40:51;1.58;;;1.38;;
56269;SDS011;42176;43.240;27.880;2023-05-08T02:43:20;3.00;;;2.25;;
56269;SDS011;42176;43.240;27.880;2023-05-08T02:45:51;2.85;;;1.65;;
56269;SDS011;42176;43.240;27.880;2023-05-08T02:48:25;2.40;;;2.13;;
56269;SDS011;42176;43.240;27.880;2023-05-08T02:50:59;2.67;;;2.05;;
56269;SDS011;42176;43.240;27.880;2023-05-08T02:53:35;2.22;;;1.85;;
56269;SDS011;42176;43.240;27.880;2023-05-08T02:56:15;1.88;;;1.63;;
56269;SDS011;42176;43.240;27.880;2023-05-08T02:58:55;2.78;;;1.77;;
56269;SDS011;42176;43.240;27.880;2023-05-08T03:01:30;3.55;;;2.10;;
56269;SDS011;42176;43.240;27.880;2023-05-08T03:04:01;2.42;;;1.67;;
56269;SDS011;42176;43.240;27.880;2023-05-08T03:06:39;2.13;;;1.58;;
56269;SDS011;42176;43.240;27.880;2023-05-08T03:09:09;3.10;;;2.15;;
56269;SDS011;42176;43.240;27.880;2023-05-08T03:11:42;3.25;;;2.25;;
56269;SDS011;42176;43.240;27.880;2023-05-08T03:14:11;7.10;;;2.13;;
56269;SDS011;42176;43.240;27.880;2023-05-08T03:16:40;5.95;;;2.03;;
56269;SDS011;42176;43.240;27.880;2023-05-08T03:19:14;2.58;;;1.80;;
56269;SDS011;42176;43.240;27.880;2023-05-08T03:21:54;3.33;;;1.95;;
56269;SDS011;42176;43.240;27.880;2023-05-08T03:24:21;2.50;;;2.13;;
56269;SDS011;42176;43.240;27.880;2023-05-08T03:26:48;4.10;;;2.20;;
56269;SDS011;42176;43.240;27.880;2023-05-08T03:29:14;5.22;;;1.98;;
56269;SDS011;42176;43.240;27.880;2023-05-08T03:31:42;3.08;;;2.00;;
56269;SDS011;42176;43.240;27.880;2023-05-08T03:34:08;3.25;;;2.22;;
56269;SDS011;42176;43.240;27.880;2023-05-08T03:36:38;3.22;;;2.15;;
56269;SDS011;42176;43.240;27.880;2023-05-08T03:39:03;6.72;;;2.22;;
56269;SDS011;42176;43.240;27.880;2023-05-08T03:41:29;3.88;;;1.88;;
56269;SDS011;42176;43.240;27.880;2023-05-08T03:43:55;3.45;;;1.83;;
56269;SDS011;42176;43.240;27.880;2023-05-08T03:46:22;2.75;;;2.00;;
56269;SDS011;42176;43.240;27.880;2023-05-08T03:48:49;1.67;;;1.58;;
56269;SDS011;42176;43.240;27.880;2023-05-08T03:51:15;3.58;;;1.90;;
56269;SDS011;42176;43.240;27.880;2023-05-08T03:53:41;1.92;;;1.70;;
56269;SDS011;42176;43.240;27.880;2023-05-08T03:56:07;3.42;;;1.90;;
56269;SDS011;42176;43.240;27.880;2023-05-08T03:58:53;2.30;;;1.70;;
56269;SDS011;42176;43.240;27.880;2023-05-08T04:04:38;2.08;;;1.38;;
56269;SDS011;42176;43.240;27.880;2023-05-08T04:07:07;5.30;;;2.42;;
56269;SDS011;42176;43.240;27.880;2023-05-08T04:13:08;2.78;;;1.67;;
56269;SDS011;42176;43.240;27.880;2023-05-08T04:15:37;2.22;;;1.50;;
56269;SDS011;42176;43.240;27.880;2023-05-08T04:18:16;2.35;;;1.50;;
56269;SDS011;42176;43.240;27.880;2023-05-08T04:20:44;8.95;;;2.22;;
56269;SDS011;42176;43.240;27.880;2023-05-08T04:23:13;5.05;;;1.77;;
56269;SDS011;42176;43.240;27.880;2023-05-08T04:25:41;4.72;;;1.63;;
56269;SDS011;42176;43.240;27.880;2023-05-08T04:28:08;2.20;;;1.30;;
56269;SDS011;42176;43.240;27.880;2023-05-08T04:30:34;5.97;;;2.20;;
56269;SDS011;42176;43.240;27.880;2023-05-08T04:33:01;2.67;;;1.52;;
56269;SDS011;42176;43.240;27.880;2023-05-08T04:35:28;6.25;;;2.08;;
56269;SDS011;42176;43.240;27.880;2023-05-08T04:37:54;6.00;;;2.40;;
56269;SDS011;42176;43.240;27.880;2023-05-08T04:40:19;4.65;;;2.20;;
56269;SDS011;42176;43.240;27.880;2023-05-08T04:42:45;6.35;;;2.13;;
56269;SDS011;42176;43.240;27.880;2023-05-08T04:45:11;8.07;;;2.25;;
56269;SDS011;42176;43.240;27.880;2023-05-08T04:47:37;2.15;;;1.92;;
56269;SDS011;42176;43.240;27.880;2023-05-08T04:50:03;2.60;;;1.65;;
56269;SDS011;42176;43.240;27.880;2023-05-08T04:52:29;9.88;;;1.80;;
56269;SDS011;42176;43.240;27.880;2023-05-08T04:54:55;6.30;;;1.90;;
56269;SDS011;42176;43.240;27.880;2023-05-08T04:57:20;4.85;;;1.90;;
56269;SDS011;42176;43.240;27.880;2023-05-08T04:59:45;2.90;;;1.67;;
56269;SDS011;42176;43.240;27.880;2023-05-08T05:02:11;3.47;;;2.20;;
56269;SDS011;42176;43.240;27.880;2023-05-08T05:04:36;7.03;;;4.00;;
56269;SDS011;42176;43.240;27.880;2023-05-08T05:07:02;16.65;;;4.10;;
56269;SDS011;42176;43.240;27.880;2023-05-08T05:09:28;8.60;;;4.30;;
56269;SDS011;42176;43.240;27.880;2023-05-08T05:11:53;11.20;;;4.70;;
56269;SDS011;42176;43.240;27.880;2023-05-08T05:14:19;12.85;;;4.55;;
56269;SDS011;42176;43.240;27.880;2023-05-08T05:16:44;7.90;;;4.88;;
56269;SDS011;42176;43.240;27.880;2023-05-08T05:19:11;11.43;;;4.85;;
56269;SDS011;42176;43.240;27.880;2023-05-08T05:21:36;8.10;;;4.72;;
56269;SDS011;42176;43.240;27.880;2023-05-08T05:24:03;9.77;;;5.20;;
56269;SDS011;42176;43.240;27.880;2023-05-08T05:26:30;13.30;;;6.40;;
56269;SDS011;42176;43.240;27.880;2023-05-08T05:28:56;5.63;;;4.03;;
56269;SDS011;42176;43.240;27.880;2023-05-08T05:31:21;6.40;;;3.80;;
56269;SDS011;42176;43.240;27.880;2023-05-08T05:33:47;6.50;;;2.70;;
56269;SDS011;42176;43.240;27.880;2023-05-08T05:36:12;9.02;;;3.28;;
56269;SDS011;42176;43.240;27.880;2023-05-08T05:38:37;2.80;;;2.05;;
56269;SDS011;42176;43.240;27.880;2023-05-08T05:41:03;7.43;;;2.05;;
56269;SDS011;42176;43.240;27.880;2023-05-08T05:43:28;5.88;;;2.00;;
56269;SDS011;42176;43.240;27.880;2023-05-08T05:45:54;7.22;;;2.40;;
56269;SDS011;42176;43.240;27.880;2023-05-08T05:48:22;3.90;;;2.15;;
56269;SDS011;42176;43.240;27.880;2023-05-08T05:50:48;4.72;;;2.38;;
56269;SDS011;42176;43.240;27.880;2023-05-08T05:53:13;4.78;;;2.35;;
56269;SDS011;42176;43.240;27.880;2023-05-08T05:55:39;5.30;;;2.45;;
56269;SDS011;42176;43.240;27.880;2023-05-08T05:58:05;6.57;;;2.65;;
56269;SDS011;42176;43.240;27.880;2023-05-08T06:00:30;3.17;;;1.77;;
56269;SDS011;42176;43.240;27.880;2023-05-08T06:02:56;1.65;;;1.50;;
56269;SDS011;42176;43.240;27.880;2023-05-08T06:05:22;6.50;;;1.92;;
56269;SDS011;42176;43.240;27.880;2023-05-08T06:07:47;2.90;;;1.75;;
56269;SDS011;42176;43.240;27.880;2023-05-08T06:10:13;4.35;;;2.10;;
56269;SDS011;42176;43.240;27.880;2023-05-08T06:12:39;1.98;;;1.88;;
56269;SDS011;42176;43.240;27.880;2023-05-08T06:15:04;3.40;;;2.20;;
56269;SDS011;42176;43.240;27.880;2023-05-08T06:17:30;6.32;;;1.90;;
56269;SDS011;42176;43.240;27.880;2023-05-08T06:19:56;5.78;;;2.03;;
56269;SDS011;42176;43.240;27.880;2023-05-08T06:22:21;3.67;;;1.83;;
56269;SDS011;42176;43.240;27.880;2023-05-08T06:24:50;10.15;;;2.00;;
56269;SDS011;42176;43.240;27.880;2023-05-08T06:29:48;7.95;;;2.63;;
56269;SDS011;42176;43.240;27.880;2023-05-08T06:32:17;3.88;;;1.95;;
56269;SDS011;42176;43.240;27.880;2023-05-08T06:34:46;4.82;;;2.35;;
56269;SDS011;42176;43.240;27.880;2023-05-08T06:37:11;4.25;;;2.30;;
56269;SDS011;42176;43.240;27.880;2023-05-08T06:39:37;6.65;;;2.05;;
56269;SDS011;42176;43.240;27.880;2023-05-08T06:42:02;4.78;;;2.20;;
56269;SDS011;42176;43.240;27.880;2023-05-08T06:44:30;4.20;;;1.98;;
56269;SDS011;42176;43.240;27.880;2023-05-08T06:46:56;6.80;;;2.63;;
56269;SDS011;42176;43.240;27.880;2023-05-08T06:49:21;4.60;;;2.33;;
56269;SDS011;42176;43.240;27.880;2023-05-08T06:51:47;6.85;;;2.80;;
56269;SDS011;42176;43.240;27.880;2023-05-08T06:54:12;8.05;;;2.65;;
56269;SDS011;42176;43.240;27.880;2023-05-08T06:56:38;5.40;;;2.22;;
56269;SDS011;42176;43.240;27.880;2023-05-08T06:59:03;4.85;;;2.80;;
56269;SDS011;42176;43.240;27.880;2023-05-08T07:01:29;8.48;;;2.88;;
56269;SDS011;42176;43.240;27.880;2023-05-08T07:03:54;5.25;;;2.60;;
56269;SDS011;42176;43.240;27.880;2023-05-08T07:06:19;2.65;;;2.22;;
56269;SDS011;42176;43.240;27.880;2023-05-08T07:08:45;7.90;;;2.58;;
56269;SDS011;42176;43.240;27.880;2023-05-08T07:11:10;5.50;;;2.67;;
56269;SDS011;42176;43.240;27.880;2023-05-08T07:13:36;14.98;;;6.97;;
56269;SDS011;42176;43.240;27.880;2023-05-08T07:16:01;5.95;;;2.78;;
56269;SDS011;42176;43.240;27.880;2023-05-08T07:18:27;5.78;;;4.55;;
56269;SDS011;42176;43.240;27.880;2023-05-08T07:20:53;7.22;;;2.78;;
56269;SDS011;42176;43.240;27.880;2023-05-08T07:23:18;6.55;;;2.95;;
56269;SDS011;42176;43.240;27.880;2023-05-08T07:25:44;5.18;;;2.30;;
56269;SDS011;42176;43.240;27.880;2023-05-08T07:28:10;8.27;;;2.90;;
56269;SDS011;42176;43.240;27.880;2023-05-08T07:30:35;3.88;;;2.28;;
56269;SDS011;42176;43.240;27.880;2023-05-08T07:33:00;3.97;;;2.50;;
56269;SDS011;42176;43.240;27.880;2023-05-08T07:35:26;3.55;;;2.30;;
56269;SDS011;42176;43.240;27.880;2023-05-08T07:37:53;3.47;;;2.22;;
56269;SDS011;42176;43.240;27.880;2023-05-08T07:40:18;4.28;;;2.05;;
56269;SDS011;42176;43.240;27.880;2023-05-08T07:42:44;5.07;;;2.45;;
56269;SDS011;42176;43.240;27.880;2023-05-08T07:45:10;4.93;;;2.58;;
56269;SDS011;42176;43.240;27.880;2023-05-08T07:47:55;3.15;;;2.05;;
56269;SDS011;42176;43.240;27.880;2023-05-08T07:50:22;4.13;;;2.10;;
56269;SDS011;42176;43.240;27.880;2023-05-08T07:52:48;3.65;;;1.95;;
56269;SDS011;42176;43.240;27.880;2023-05-08T07:55:15;3.97;;;2.05;;
56269;SDS011;42176;43.240;27.880;2023-05-08T07:57:41;10.18;;;2.88;;
56269;SDS011;42176;43.240;27.880;2023-05-08T08:00:08;4.65;;;2.28;;
56269;SDS011;42176;43.240;27.880;2023-05-08T08:02:35;4.32;;;2.20;;
56269;SDS011;42176;43.240;27.880;2023-05-08T08:05:01;4.18;;;2.13;;
56269;SDS011;42176;43.240;27.880;2023-05-08T08:07:27;3.90;;;1.92;;
56269;SDS011;42176;43.240;27.880;2023-05-08T08:09:52;2.80;;;2.28;;
56269;SDS011;42176;43.240;27.880;2023-05-08T08:12:18;2.17;;;1.48;;
56269;SDS011;42176;43.240;27.880;2023-05-08T08:14:44;5.57;;;2.20;;
56269;SDS011;42176;43.240;27.880;2023-05-08T08:17:10;4.63;;;1.90;;
56269;SDS011;42176;43.240;27.880;2023-05-08T08:19:35;3.15;;;1.92;;
56269;SDS011;42176;43.240;27.880;2023-05-08T08:22:01;3.80;;;1.88;;
56269;SDS011;42176;43.240;27.880;2023-05-08T08:24:26;2.90;;;2.05;;
56269;SDS011;42176;43.240;27.880;2023-05-08T08:26:53;3.90;;;1.98;;
56269;SDS011;42176;43.240;27.880;2023-05-08T08:29:18;3.75;;;2.00;;
56269;SDS011;42176;43.240;27.880;2023-05-08T08:31:44;5.68;;;1.92;;
56269;SDS011;42176;43.240;27.880;2023-05-08T08:34:09;5.30;;;2.05;;
56269;SDS011;42176;43.240;27.880;2023-05-08T08:36:35;5.43;;;2.10;;
56269;SDS011;42176;43.240;27.880;2023-05-08T08:39:01;3.35;;;1.80;;
56269;SDS011;42176;43.240;27.880;2023-05-08T08:41:26;4.88;;;2.00;;
56269;SDS011;42176;43.240;27.880;2023-05-08T08:43:53;4.00;;;1.70;;
56269;SDS011;42176;43.240;27.880;2023-05-08T08:46:19;2.00;;;1.80;;
56269;SDS011;42176;43.240;27.880;2023-05-08T08:48:52;2.83;;;1.70;;
56269;SDS011;42176;43.240;27.880;2023-05-08T08:51:26;5.47;;;1.70;;
56269;SDS011;42176;43.240;27.880;2023-05-08T08:54:06;5.20;;;2.20;;
56269;SDS011;42176;43.240;27.880;2023-05-08T08:56:36;2.55;;;1.73;;
56269;SDS011;42176;43.240;27.880;2023-05-08T08:59:03;1.88;;;1.60;;
56269;SDS011;42176;43.240;27.880;2023-05-08T09:01:32;3.08;;;1.42;;
56269;SDS011;42176;43.240;27.880;2023-05-08T09:04:02;7.45;;;2.03;;
56269;SDS011;42176;43.240;27.880;2023-05-08T09:06:27;3.40;;;1.75;;
56269;SDS011;42176;43.240;27.880;2023-05-08T09:08:56;3.17;;;2.28;;
56269;SDS011;42176;43.240;27.880;2023-05-08T09:11:25;3.13;;;1.60;;
56269;SDS011;42176;43.240;27.880;2023-05-08T09:13:51;4.78;;;2.25;;
56269;SDS011;42176;43.240;27.880;2023-05-08T09:16:18;6.18;;;2.67;;
56269;SDS011;42176;43.240;27.880;2023-05-08T09:18:44;3.33;;;2.15;;
56269;SDS011;42176;43.240;27.880;2023-05-08T09:21:10;4.72;;;2.45;;
56269;SDS011;42176;43.240;27.880;2023-05-08T09:23:35;2.17;;;1.70;;
56269;SDS011;42176;43.240;27.880;2023-05-08T09:26:00;3.97;;;1.92;;
56269;SDS011;42176;43.240;27.880;2023-05-08T09:28:26;3.53;;;1.77;;
56269;SDS011;42176;43.240;27.880;2023-05-08T09:30:52;1.98;;;1.65;;
56269;SDS011;42176;43.240;27.880;2023-05-08T09:33:20;8.13;;;2.15;;
56269;SDS011;42176;43.240;27.880;2023-05-08T09:35:48;3.38;;;2.10;;
56269;SDS011;42176;43.240;27.880;2023-05-08T09:41:06;7.35;;;2.10;;
56269;SDS011;42176;43.240;27.880;2023-05-08T09:43:34;3.97;;;2.00;;
56269;SDS011;42176;43.240;27.880;2023-05-08T09:48:54;11.25;;;2.38;;
56269;SDS011;42176;43.240;27.880;2023-05-08T09:51:24;3.08;;;1.63;;
56269;SDS011;42176;43.240;27.880;2023-05-08T09:53:54;3.85;;;1.70;;
56269;SDS011;42176;43.240;27.880;2023-05-08T09:56:36;2.47;;;1.77;;
56269;SDS011;42176;43.240;27.880;2023-05-08T09:59:05;4.97;;;1.80;;
56269;SDS011;42176;43.240;27.880;2023-05-08T10:01:46;3.60;;;1.73;;
56269;SDS011;42176;43.240;27.880;2023-05-08T10:04:13;2.60;;;1.60;;
56269;SDS011;42176;43.240;27.880;2023-05-08T10:06:38;5.25;;;2.08;;
56269;SDS011;42176;43.240;27.880;2023-05-08T10:09:08;5.22;;;2.50;;
56269;SDS011;42176;43.240;27.880;2023-05-08T10:11:34;5.75;;;1.83;;
56269;SDS011;42176;43.240;27.880;2023-05-08T10:14:00;2.72;;;2.10;;
56269;SDS011;42176;43.240;27.880;2023-05-08T10:16:27;6.72;;;1.98;;
56269;SDS011;42176;43.240;27.880;2023-05-08T10:18:54;3.97;;;1.75;;
56269;SDS011;42176;43.240;27.880;2023-05-08T10:21:29;2.72;;;2.20;;
56269;SDS011;42176;43.240;27.880;2023-05-08T10:23:59;4.07;;;2.28;;
56269;SDS011;42176;43.240;27.880;2023-05-08T10:26:30;5.05;;;2.88;;
56269;SDS011;42176;43.240;27.880;2023-05-08T10:28:58;5.18;;;1.90;;
56269;SDS011;42176;43.240;27.880;2023-05-08T10:31:34;1.88;;;1.40;;
56269;SDS011;42176;43.240;27.880;2023-05-08T10:34:01;4.70;;;1.92;;
56269;SDS011;42176;43.240;27.880;2023-05-08T10:36:28;1.92;;;1.80;;
56269;SDS011;42176;43.240;27.880;2023-05-08T10:38:56;5.70;;;2.13;;
56269;SDS011;42176;43.240;27.880;2023-05-08T10:41:23;5.43;;;1.65;;
56269;SDS011;42176;43.240;27.880;2023-05-08T10:43:49;1.58;;;1.45;;
56269;SDS011;42176;43.240;27.880;2023-05-08T10:57:06;3.17;;;1.80;;
56269;SDS011;42176;43.240;27.880;2023-05-08T10:59:35;2.00;;;1.23;;
56269;SDS011;42176;43.240;27.880;2023-05-08T11:02:07;2.25;;;1.40;;
56269;SDS011;42176;43.240;27.880;2023-05-08T11:04:33;5.32;;;2.53;;
56269;SDS011;42176;43.240;27.880;2023-05-08T11:06:59;4.38;;;2.20;;
56269;SDS011;42176;43.240;27.880;2023-05-08T11:09:28;2.30;;;2.00;;
56269;SDS011;42176;43.240;27.880;2023-05-08T11:12:00;23.42;;;2.70;;
56269;SDS011;42176;43.240;27.880;2023-05-08T11:17:05;10.93;;;2.00;;
56269;SDS011;42176;43.240;27.880;2023-05-08T11:19:32;6.80;;;2.00;;
56269;SDS011;42176;43.240;27.880;2023-05-08T11:22:10;5.38;;;1.90;;
56269;SDS011;42176;43.240;27.880;2023-05-08T11:25:00;3.45;;;2.10;;
56269;SDS011;42176;43.240;27.880;2023-05-08T11:27:31;5.25;;;2.83;;
56269;SDS011;42176;43.240;27.880;2023-05-08T11:30:18;2.65;;;2.03;;
56269;SDS011;42176;43.240;27.880;2023-05-08T11:38:33;3.97;;;1.90;;
56269;SDS011;42176;43.240;27.880;2023-05-08T11:46:18;6.95;;;1.70;;
56269;SDS011;42176;43.240;27.880;2023-05-08T11:48:45;4.40;;;2.22;;
56269;SDS011;42176;43.240;27.880;2023-05-08T11:51:10;6.30;;;1.90;;
56269;SDS011;42176;43.240;27.880;2023-05-08T11:53:37;4.32;;;2.00;;
56269;SDS011;42176;43.240;27.880;2023-05-08T11:56:04;10.95;;;1.75;;
56269;SDS011;42176;43.240;27.880;2023-05-08T11:58:30;4.30;;;2.20;;
56269;SDS011;42176;43.240;27.880;2023-05-08T12:00:55;3.53;;;1.80;;
56269;SDS011;42176;43.240;27.880;2023-05-08T12:03:22;3.28;;;2.42;;
56269;SDS011;42176;43.240;27.880;2023-05-08T12:05:53;3.13;;;2.20;;
56269;SDS011;42176;43.240;27.880;2023-05-08T12:08:20;5.75;;;2.70;;
56269;SDS011;42176;43.240;27.880;2023-05-08T12:10:49;5.05;;;1.80;;
56269;SDS011;42176;43.240;27.880;2023-05-08T12:13:19;4.50;;;1.92;;
56269;SDS011;42176;43.240;27.880;2023-05-08T12:15:46;2.65;;;1.80;;
56269;SDS011;42176;43.240;27.880;2023-05-08T12:18:14;5.40;;;2.10;;
56269;SDS011;42176;43.240;27.880;2023-05-08T12:20:41;5.57;;;1.88;;
56269;SDS011;42176;43.240;27.880;2023-05-08T12:23:07;2.80;;;1.77;;
56269;SDS011;42176;43.240;27.880;2023-05-08T12:25:35;7.35;;;2.15;;
56269;SDS011;42176;43.240;27.880;2023-05-08T12:28:02;3.55;;;2.28;;
56269;SDS011;42176;43.240;27.880;2023-05-08T12:30:29;3.40;;;1.95;;
56269;SDS011;42176;43.240;27.880;2023-05-08T12:32:55;2.17;;;1.88;;
56269;SDS011;42176;43.240;27.880;2023-05-08T12:35:20;2.72;;;2.13;;
56269;SDS011;42176;43.240;27.880;2023-05-08T12:37:46;3.70;;;2.25;;
56269;SDS011;42176;43.240;27.880;2023-05-08T12:40:24;5.20;;;2.13;;
56269;SDS011;42176;43.240;27.880;2023-05-08T12:42:51;3.17;;;1.80;;
56269;SDS011;42176;43.240;27.880;2023-05-08T12:47:52;5.93;;;2.35;;
56269;SDS011;42176;43.240;27.880;2023-05-08T12:50:22;5.28;;;2.13;;
56269;SDS011;42176;43.240;27.880;2023-05-08T12:52:51;4.68;;;2.38;;
56269;SDS011;42176;43.240;27.880;2023-05-08T12:55:23;4.60;;;1.92;;
56269;SDS011;42176;43.240;27.880;2023-05-08T12:58:02;3.40;;;1.85;;
56269;SDS011;42176;43.240;27.880;2023-05-08T13:00:48;3.88;;;2.13;;
56269;SDS011;42176;43.240;27.880;2023-05-08T13:03:22;5.35;;;1.88;;
56269;SDS011;42176;43.240;27.880;2023-05-08T13:05:53;3.10;;;1.85;;
56269;SDS011;42176;43.240;27.880;2023-05-08T13:08:19;2.95;;;2.30;;
56269;SDS011;42176;43.240;27.880;2023-05-08T13:10:49;4.63;;;2.00;;
56269;SDS011;42176;43.240;27.880;2023-05-08T13:13:17;5.05;;;2.38;;
56269;SDS011;42176;43.240;27.880;2023-05-08T13:15:43;3.40;;;2.20;;
56269;SDS011;42176;43.240;27.880;2023-05-08T13:18:09;3.67;;;2.00;;
56269;SDS011;42176;43.240;27.880;2023-05-08T13:20:34;10.27;;;1.98;;
56269;SDS011;42176;43.240;27.880;2023-05-08T13:23:01;3.63;;;1.40;;
56269;SDS011;42176;43.240;27.880;2023-05-08T13:25:27;4.93;;;2.17;;
56269;SDS011;42176;43.240;27.880;2023-05-08T13:27:53;6.90;;;1.90;;
56269;SDS011;42176;43.240;27.880;2023-05-08T13:30:19;2.53;;;1.50;;
56269;SDS011;42176;43.240;27.880;2023-05-08T13:32:46;2.80;;;1.95;;
56269;SDS011;42176;43.240;27.880;2023-05-08T13:35:15;2.63;;;2.00;;
56269;SDS011;42176;43.240;27.880;2023-05-08T13:37:41;5.22;;;2.45;;
56269;SDS011;42176;43.240;27.880;2023-05-08T13:40:06;4.63;;;1.73;;
56269;SDS011;42176;43.240;27.880;2023-05-08T13:42:32;1.95;;;1.77;;
56269;SDS011;42176;43.240;27.880;2023-05-08T13:44:57;4.28;;;1.88;;
56269;SDS011;42176;43.240;27.880;2023-05-08T13:47:23;4.57;;;1.90;;
56269;SDS011;42176;43.240;27.880;2023-05-08T13:49:49;2.75;;;1.98;;
56269;SDS011;42176;43.240;27.880;2023-05-08T13:52:14;7.70;;;2.10;;
56269;SDS011;42176;43.240;27.880;2023-05-08T13:54:40;3.55;;;2.05;;
56269;SDS011;42176;43.240;27.880;2023-05-08T13:57:06;9.68;;;2.40;;
56269;SDS011;42176;43.240;27.880;2023-05-08T13:59:32;2.40;;;1.95;;
56269;SDS011;42176;43.240;27.880;2023-05-08T14:01:59;3.72;;;2.03;;
56269;SDS011;42176;43.240;27.880;2023-05-08T14:04:25;17.63;;;2.22;;
56269;SDS011;42176;43.240;27.880;2023-05-08T14:06:50;6.63;;;2.50;;
56269;SDS011;42176;43.240;27.880;2023-05-08T14:09:16;4.25;;;2.90;;
56269;SDS011;42176;43.240;27.880;2023-05-08T14:11:41;6.68;;;1.90;;
56269;SDS011;42176;43.240;27.880;2023-05-08T14:14:07;4.97;;;2.05;;
56269;SDS011;42176;43.240;27.880;2023-05-08T14:16:32;5.95;;;2.67;;
56269;SDS011;42176;43.240;27.880;2023-05-08T14:18:58;2.90;;;2.10;;
56269;SDS011;42176;43.240;27.880;2023-05-08T14:21:23;3.10;;;2.00;;
56269;SDS011;42176;43.240;27.880;2023-05-08T14:23:49;7.72;;;2.40;;
56269;SDS011;42176;43.240;27.880;2023-05-08T14:26:15;2.40;;;2.17;;
56269;SDS011;42176;43.240;27.880;2023-05-08T14:28:41;2.53;;;2.30;;
56269;SDS011;42176;43.240;27.880;2023-05-08T14:31:06;5.18;;;3.30;;
56269;SDS011;42176;43.240;27.880;2023-05-08T14:33:32;6.93;;;2.40;;
56269;SDS011;42176;43.240;27.880;2023-05-08T14:35:57;2.22;;;2.03;;
56269;SDS011;42176;43.240;27.880;2023-05-08T14:38:23;6.45;;;2.10;;
56269;SDS011;42176;43.240;27.880;2023-05-08T14:40:48;2.90;;;2.20;;
56269;SDS011;42176;43.240;27.880;2023-05-08T14:43:15;3.88;;;2.40;;
56269;SDS011;42176;43.240;27.880;2023-05-08T14:45:40;4.10;;;2.78;;
56269;SDS011;42176;43.240;27.880;2023-05-08T14:48:06;3.15;;;1.92;;
56269;SDS011;42176;43.240;27.880;2023-05-08T14:50:31;6.03;;;2.58;;
56269;SDS011;42176;43.240;27.880;2023-05-08T14:52:57;3.75;;;1.90;;
56269;SDS011;42176;43.240;27.880;2023-05-08T14:55:23;4.30;;;2.63;;
56269;SDS011;42176;43.240;27.880;2023-05-08T14:57:48;18.05;;;2.22;;
56269;SDS011;42176;43.240;27.880;2023-05-08T15:00:14;3.75;;;2.30;;
56269;SDS011;42176;43.240;27.880;2023-05-08T15:02:41;4.72;;;2.50;;
56269;SDS011;42176;43.240;27.880;2023-05-08T15:05:07;11.38;;;3.10;;
56269;SDS011;42176;43.240;27.880;2023-05-08T15:07:33;7.60;;;2.63;;
56269;SDS011;42176;43.240;27.880;2023-05-08T15:09:58;4.35;;;2.30;;
56269;SDS011;42176;43.240;27.880;2023-05-08T15:12:24;5.07;;;2.63;;
56269;SDS011;42176;43.240;27.880;2023-05-08T15:17:17;3.95;;;2.35;;
56269;SDS011;42176;43.240;27.880;2023-05-08T15:19:43;10.27;;;2.30;;
56269;SDS011;42176;43.240;27.880;2023-05-08T15:22:10;6.18;;;2.03;;
56269;SDS011;42176;43.240;27.880;2023-05-08T15:24:36;8.05;;;2.88;;
56269;SDS011;42176;43.240;27.880;2023-05-08T15:27:02;7.50;;;3.40;;
56269;SDS011;42176;43.240;27.880;2023-05-08T15:29:28;6.18;;;2.97;;
56269;SDS011;42176;43.240;27.880;2023-05-08T15:31:53;8.52;;;2.58;;
56269;SDS011;42176;43.240;27.880;2023-05-08T15:34:19;4.07;;;2.85;;
56269;SDS011;42176;43.240;27.880;2023-05-08T15:36:45;6.32;;;3.85;;
56269;SDS011;42176;43.240;27.880;2023-05-08T15:39:11;4.82;;;3.10;;
56269;SDS011;42176;43.240;27.880;2023-05-08T15:41:37;7.53;;;3.80;;
56269;SDS011;42176;43.240;27.880;2023-05-08T15:44:04;7.20;;;3.25;;